sensor_id;sensor_type;location;lat;lon;timestamp;P1;durP1;ratioP1;P2;durP2;ratioP2
9156;SDS011;4613;48.392;9.998;2022-08-03T00:00:14;3.33;;;2.33;;
9156;SDS011;4613;48.392;9.998;2022-08-03T00:02:45;3.00;;;2.70;;
9156;SDS011;4613;48.392;9.998;2022-08-03T00:05:16;5.13;;;2.47;;
9156;SDS011;4613;48.392;9.998;2022-08-03T00:07:47;5.40;;;2.67;;
9156;SDS011;4613;48.392;9.998;2022-08-03T00:10:17;2.87;;;2.53;;
9156;SDS011;4613;48.392;9.998;2022-08-03T00:12:48;2.90;;;2.60;;
9156;SDS011;4613;48.392;9.998;2022-08-03T00:15:20;2.67;;;2.40;;
9156;SDS011;4613;48.392;9.998;2022-08-03T00:17:51;7.10;;;2.40;;
9156;SDS011;4613;48.392;9.998;2022-08-03T00:20:22;2.63;;;2.40;;
9156;SDS011;4613;48.392;9.998;2022-08-03T00:22:54;4.20;;;2.80;;
9156;SDS011;4613;48.392;9.998;2022-08-03T00:25:25;5.00;;;2.40;;
9156;SDS011;4613;48.392;9.998;2022-08-03T00:27:56;2.70;;;2.40;;
9156;SDS011;4613;48.392;9.998;2022-08-03T00:30:27;2.60;;;2.40;;
9156;SDS011;4613;48.392;9.998;2022-08-03T00:32:58;4.57;;;2.60;;
9156;SDS011;4613;48.392;9.998;2022-08-03T00:35:30;2.73;;;2.50;;
9156;SDS011;4613;48.392;9.998;2022-08-03T00:38:01;2.90;;;2.63;;
9156;SDS011;4613;48.392;9.998;2022-08-03T00:40:32;3.00;;;2.80;;
9156;SDS011;4613;48.392;9.998;2022-08-03T00:43:04;3.10;;;2.80;;
9156;SDS011;4613;48.392;9.998;2022-08-03T00:45:37;2.87;;;2.67;;
9156;SDS011;4613;48.392;9.998;2022-08-03T00:48:10;2.80;;;2.60;;
9156;SDS011;4613;48.392;9.998;2022-08-03T00:50:42;2.67;;;2.47;;
9156;SDS011;4613;48.392;9.998;2022-08-03T00:53:13;2.90;;;2.67;;
9156;SDS011;4613;48.392;9.998;2022-08-03T00:55:44;3.10;;;2.80;;
9156;SDS011;4613;48.392;9.998;2022-08-03T00:58:15;2.70;;;2.50;;
9156;SDS011;4613;48.392;9.998;2022-08-03T01:00:46;2.70;;;2.50;;
9156;SDS011;4613;48.392;9.998;2022-08-03T01:03:17;2.80;;;2.50;;
9156;SDS011;4613;48.392;9.998;2022-08-03T01:05:53;4.30;;;2.90;;
9156;SDS011;4613;48.392;9.998;2022-08-03T01:11:05;2.80;;;2.60;;
9156;SDS011;4613;48.392;9.998;2022-08-03T01:17:04;4.80;;;2.70;;
9156;SDS011;4613;48.392;9.998;2022-08-03T01:19:57;2.70;;;2.50;;
9156;SDS011;4613;48.392;9.998;2022-08-03T01:28:32;3.33;;;2.87;;
9156;SDS011;4613;48.392;9.998;2022-08-03T01:31:37;4.07;;;2.90;;
9156;SDS011;4613;48.392;9.998;2022-08-03T01:34:11;3.57;;;2.90;;
9156;SDS011;4613;48.392;9.998;2022-08-03T01:36:47;3.10;;;2.70;;
9156;SDS011;4613;48.392;9.998;2022-08-03T01:39:22;3.00;;;2.70;;
9156;SDS011;4613;48.392;9.998;2022-08-03T01:41:56;2.80;;;2.60;;
9156;SDS011;4613;48.392;9.998;2022-08-03T01:44:30;3.70;;;2.90;;
9156;SDS011;4613;48.392;9.998;2022-08-03T01:47:06;2.90;;;2.60;;
9156;SDS011;4613;48.392;9.998;2022-08-03T01:49:38;3.00;;;2.70;;
9156;SDS011;4613;48.392;9.998;2022-08-03T01:52:12;5.60;;;2.90;;
9156;SDS011;4613;48.392;9.998;2022-08-03T01:54:47;3.10;;;2.57;;
9156;SDS011;4613;48.392;9.998;2022-08-03T01:57:20;3.37;;;2.70;;
9156;SDS011;4613;48.392;9.998;2022-08-03T01:59:53;3.10;;;2.77;;
9156;SDS011;4613;48.392;9.998;2022-08-03T02:02:26;6.27;;;2.67;;
9156;SDS011;4613;48.392;9.998;2022-08-03T02:04:57;3.53;;;2.70;;
9156;SDS011;4613;48.392;9.998;2022-08-03T02:07:29;4.37;;;3.23;;
9156;SDS011;4613;48.392;9.998;2022-08-03T02:10:03;5.97;;;2.80;;
9156;SDS011;4613;48.392;9.998;2022-08-03T02:12:36;3.40;;;2.80;;
9156;SDS011;4613;48.392;9.998;2022-08-03T02:15:09;3.00;;;2.70;;
9156;SDS011;4613;48.392;9.998;2022-08-03T02:17:41;3.00;;;2.77;;
9156;SDS011;4613;48.392;9.998;2022-08-03T02:20:15;4.43;;;3.00;;
9156;SDS011;4613;48.392;9.998;2022-08-03T02:22:46;4.07;;;3.43;;
9156;SDS011;4613;48.392;9.998;2022-08-03T02:25:17;4.70;;;4.30;;
9156;SDS011;4613;48.392;9.998;2022-08-03T02:27:54;3.87;;;3.43;;
9156;SDS011;4613;48.392;9.998;2022-08-03T02:30:32;3.73;;;3.20;;
9156;SDS011;4613;48.392;9.998;2022-08-03T02:33:10;3.33;;;3.00;;
9156;SDS011;4613;48.392;9.998;2022-08-03T02:35:46;3.80;;;2.67;;
9156;SDS011;4613;48.392;9.998;2022-08-03T02:38:20;3.33;;;2.70;;
9156;SDS011;4613;48.392;9.998;2022-08-03T02:40:56;2.60;;;2.40;;
9156;SDS011;4613;48.392;9.998;2022-08-03T02:43:28;3.03;;;2.80;;
9156;SDS011;4613;48.392;9.998;2022-08-03T02:46:01;2.77;;;2.57;;
9156;SDS011;4613;48.392;9.998;2022-08-03T02:48:32;6.00;;;2.80;;
9156;SDS011;4613;48.392;9.998;2022-08-03T02:51:06;5.17;;;2.70;;
9156;SDS011;4613;48.392;9.998;2022-08-03T02:53:38;3.13;;;2.80;;
9156;SDS011;4613;48.392;9.998;2022-08-03T02:56:10;6.67;;;5.90;;
9156;SDS011;4613;48.392;9.998;2022-08-03T02:58:42;8.33;;;7.47;;
9156;SDS011;4613;48.392;9.998;2022-08-03T03:01:18;5.23;;;3.70;;
9156;SDS011;4613;48.392;9.998;2022-08-03T03:03:52;6.50;;;3.30;;
9156;SDS011;4613;48.392;9.998;2022-08-03T03:06:25;3.40;;;3.10;;
9156;SDS011;4613;48.392;9.998;2022-08-03T03:08:57;3.17;;;2.97;;
9156;SDS011;4613;48.392;9.998;2022-08-03T03:11:29;3.27;;;3.07;;
9156;SDS011;4613;48.392;9.998;2022-08-03T03:14:00;3.07;;;2.80;;
9156;SDS011;4613;48.392;9.998;2022-08-03T03:16:32;3.00;;;2.80;;
9156;SDS011;4613;48.392;9.998;2022-08-03T03:19:04;3.10;;;2.80;;
9156;SDS011;4613;48.392;9.998;2022-08-03T03:21:36;3.80;;;2.80;;
9156;SDS011;4613;48.392;9.998;2022-08-03T03:24:08;3.10;;;2.87;;
9156;SDS011;4613;48.392;9.998;2022-08-03T03:26:39;3.47;;;3.17;;
9156;SDS011;4613;48.392;9.998;2022-08-03T03:29:11;3.27;;;2.93;;
9156;SDS011;4613;48.392;9.998;2022-08-03T03:31:42;3.33;;;3.03;;
9156;SDS011;4613;48.392;9.998;2022-08-03T03:34:13;3.37;;;3.07;;
9156;SDS011;4613;48.392;9.998;2022-08-03T03:36:44;3.80;;;3.20;;
9156;SDS011;4613;48.392;9.998;2022-08-03T03:39:15;3.33;;;3.03;;
9156;SDS011;4613;48.392;9.998;2022-08-03T03:41:46;3.00;;;2.80;;
9156;SDS011;4613;48.392;9.998;2022-08-03T03:44:18;2.90;;;2.70;;
9156;SDS011;4613;48.392;9.998;2022-08-03T03:46:48;4.27;;;3.37;;
9156;SDS011;4613;48.392;9.998;2022-08-03T03:49:19;3.40;;;2.93;;
9156;SDS011;4613;48.392;9.998;2022-08-03T03:51:51;3.60;;;3.00;;
9156;SDS011;4613;48.392;9.998;2022-08-03T03:54:25;3.17;;;2.87;;
9156;SDS011;4613;48.392;9.998;2022-08-03T03:56:56;4.80;;;3.10;;
9156;SDS011;4613;48.392;9.998;2022-08-03T03:59:28;3.60;;;3.00;;
9156;SDS011;4613;48.392;9.998;2022-08-03T04:01:59;5.30;;;3.27;;
9156;SDS011;4613;48.392;9.998;2022-08-03T04:04:31;3.27;;;2.97;;
9156;SDS011;4613;48.392;9.998;2022-08-03T04:07:22;3.10;;;2.90;;
9156;SDS011;4613;48.392;9.998;2022-08-03T04:10:15;3.13;;;2.87;;
9156;SDS011;4613;48.392;9.998;2022-08-03T04:13:10;4.63;;;3.33;;
9156;SDS011;4613;48.392;9.998;2022-08-03T04:15:43;4.50;;;3.17;;
9156;SDS011;4613;48.392;9.998;2022-08-03T04:18:15;3.47;;;2.80;;
9156;SDS011;4613;48.392;9.998;2022-08-03T04:20:47;3.00;;;2.70;;
9156;SDS011;4613;48.392;9.998;2022-08-03T04:23:21;3.40;;;3.10;;
9156;SDS011;4613;48.392;9.998;2022-08-03T04:25:57;3.40;;;3.10;;
9156;SDS011;4613;48.392;9.998;2022-08-03T04:28:30;3.10;;;2.90;;
9156;SDS011;4613;48.392;9.998;2022-08-03T04:31:03;4.20;;;3.30;;
9156;SDS011;4613;48.392;9.998;2022-08-03T04:33:36;3.50;;;3.20;;
9156;SDS011;4613;48.392;9.998;2022-08-03T04:36:09;3.43;;;3.13;;
9156;SDS011;4613;48.392;9.998;2022-08-03T04:41:28;4.20;;;2.90;;
9156;SDS011;4613;48.392;9.998;2022-08-03T04:44:00;3.03;;;2.80;;
9156;SDS011;4613;48.392;9.998;2022-08-03T04:46:34;4.07;;;3.07;;
9156;SDS011;4613;48.392;9.998;2022-08-03T04:49:08;3.30;;;2.90;;
9156;SDS011;4613;48.392;9.998;2022-08-03T04:51:40;3.67;;;2.50;;
9156;SDS011;4613;48.392;9.998;2022-08-03T04:54:12;4.37;;;2.90;;
9156;SDS011;4613;48.392;9.998;2022-08-03T04:56:43;3.67;;;3.00;;
9156;SDS011;4613;48.392;9.998;2022-08-03T04:59:14;4.80;;;2.87;;
9156;SDS011;4613;48.392;9.998;2022-08-03T05:01:46;5.07;;;2.97;;
9156;SDS011;4613;48.392;9.998;2022-08-03T05:04:17;3.97;;;3.00;;
9156;SDS011;4613;48.392;9.998;2022-08-03T05:06:49;3.10;;;2.80;;
9156;SDS011;4613;48.392;9.998;2022-08-03T05:09:20;3.70;;;2.67;;
9156;SDS011;4613;48.392;9.998;2022-08-03T05:11:52;2.87;;;2.67;;
9156;SDS011;4613;48.392;9.998;2022-08-03T05:14:22;3.03;;;2.70;;
9156;SDS011;4613;48.392;9.998;2022-08-03T05:16:53;3.40;;;2.53;;
9156;SDS011;4613;48.392;9.998;2022-08-03T05:19:24;4.90;;;2.63;;
9156;SDS011;4613;48.392;9.998;2022-08-03T05:21:55;3.20;;;2.90;;
9156;SDS011;4613;48.392;9.998;2022-08-03T05:24:26;3.53;;;2.80;;
9156;SDS011;4613;48.392;9.998;2022-08-03T05:26:57;5.27;;;2.60;;
9156;SDS011;4613;48.392;9.998;2022-08-03T05:29:28;2.90;;;2.60;;
9156;SDS011;4613;48.392;9.998;2022-08-03T05:31:59;5.77;;;3.40;;
9156;SDS011;4613;48.392;9.998;2022-08-03T05:34:31;3.90;;;3.10;;
9156;SDS011;4613;48.392;9.998;2022-08-03T05:37:02;3.40;;;2.80;;
9156;SDS011;4613;48.392;9.998;2022-08-03T05:39:33;3.13;;;2.70;;
9156;SDS011;4613;48.392;9.998;2022-08-03T05:42:04;2.93;;;2.67;;
9156;SDS011;4613;48.392;9.998;2022-08-03T05:44:35;3.30;;;3.00;;
9156;SDS011;4613;48.392;9.998;2022-08-03T05:47:09;2.83;;;2.57;;
9156;SDS011;4613;48.392;9.998;2022-08-03T05:49:40;6.93;;;3.00;;
9156;SDS011;4613;48.392;9.998;2022-08-03T05:52:11;5.03;;;2.50;;
9156;SDS011;4613;48.392;9.998;2022-08-03T05:54:42;5.47;;;2.90;;
9156;SDS011;4613;48.392;9.998;2022-08-03T05:57:12;6.53;;;2.90;;
9156;SDS011;4613;48.392;9.998;2022-08-03T05:59:43;8.07;;;2.87;;
9156;SDS011;4613;48.392;9.998;2022-08-03T06:02:14;5.47;;;2.90;;
9156;SDS011;4613;48.392;9.998;2022-08-03T06:04:45;2.70;;;2.50;;
9156;SDS011;4613;48.392;9.998;2022-08-03T06:07:16;7.53;;;3.10;;
9156;SDS011;4613;48.392;9.998;2022-08-03T06:09:47;3.73;;;2.63;;
9156;SDS011;4613;48.392;9.998;2022-08-03T06:12:18;3.43;;;2.50;;
9156;SDS011;4613;48.392;9.998;2022-08-03T06:14:49;4.30;;;2.90;;
9156;SDS011;4613;48.392;9.998;2022-08-03T06:17:20;3.33;;;3.10;;
9156;SDS011;4613;48.392;9.998;2022-08-03T06:19:51;4.20;;;2.97;;
9156;SDS011;4613;48.392;9.998;2022-08-03T06:22:23;3.30;;;3.00;;
9156;SDS011;4613;48.392;9.998;2022-08-03T06:24:54;3.40;;;3.10;;
9156;SDS011;4613;48.392;9.998;2022-08-03T06:27:25;3.23;;;2.63;;
9156;SDS011;4613;48.392;9.998;2022-08-03T06:29:56;3.70;;;3.07;;
9156;SDS011;4613;48.392;9.998;2022-08-03T06:32:27;3.90;;;2.80;;
9156;SDS011;4613;48.392;9.998;2022-08-03T06:34:58;3.93;;;2.83;;
9156;SDS011;4613;48.392;9.998;2022-08-03T06:37:29;4.97;;;3.20;;
9156;SDS011;4613;48.392;9.998;2022-08-03T06:40:00;3.23;;;2.93;;
9156;SDS011;4613;48.392;9.998;2022-08-03T06:42:32;3.77;;;2.80;;
9156;SDS011;4613;48.392;9.998;2022-08-03T06:45:04;2.83;;;2.63;;
9156;SDS011;4613;48.392;9.998;2022-08-03T06:47:37;3.50;;;2.83;;
9156;SDS011;4613;48.392;9.998;2022-08-03T06:50:09;4.87;;;3.93;;
9156;SDS011;4613;48.392;9.998;2022-08-03T06:52:40;3.03;;;2.80;;
9156;SDS011;4613;48.392;9.998;2022-08-03T06:55:11;3.43;;;3.13;;
9156;SDS011;4613;48.392;9.998;2022-08-03T06:57:41;2.83;;;2.43;;
9156;SDS011;4613;48.392;9.998;2022-08-03T07:00:12;2.57;;;2.37;;
9156;SDS011;4613;48.392;9.998;2022-08-03T07:02:44;2.63;;;2.37;;
9156;SDS011;4613;48.392;9.998;2022-08-03T07:05:16;3.37;;;2.43;;
9156;SDS011;4613;48.392;9.998;2022-08-03T07:07:47;4.03;;;2.30;;
9156;SDS011;4613;48.392;9.998;2022-08-03T07:10:18;2.60;;;2.40;;
9156;SDS011;4613;48.392;9.998;2022-08-03T07:12:49;3.50;;;2.37;;
9156;SDS011;4613;48.392;9.998;2022-08-03T07:15:21;2.67;;;2.40;;
9156;SDS011;4613;48.392;9.998;2022-08-03T07:17:52;3.43;;;3.13;;
9156;SDS011;4613;48.392;9.998;2022-08-03T07:20:23;3.37;;;2.40;;
9156;SDS011;4613;48.392;9.998;2022-08-03T07:22:54;2.40;;;2.23;;
9156;SDS011;4613;48.392;9.998;2022-08-03T07:25:25;2.30;;;2.20;;
9156;SDS011;4613;48.392;9.998;2022-08-03T07:27:56;5.53;;;2.43;;
9156;SDS011;4613;48.392;9.998;2022-08-03T07:30:27;2.57;;;2.37;;
9156;SDS011;4613;48.392;9.998;2022-08-03T07:32:58;4.10;;;2.03;;
9156;SDS011;4613;48.392;9.998;2022-08-03T07:35:29;2.90;;;2.17;;
9156;SDS011;4613;48.392;9.998;2022-08-03T07:38:00;3.10;;;2.20;;
9156;SDS011;4613;48.392;9.998;2022-08-03T07:40:31;2.60;;;1.87;;
9156;SDS011;4613;48.392;9.998;2022-08-03T07:43:02;3.93;;;2.20;;
9156;SDS011;4613;48.392;9.998;2022-08-03T07:45:34;3.90;;;2.20;;
9156;SDS011;4613;48.392;9.998;2022-08-03T07:48:05;2.20;;;2.00;;
9156;SDS011;4613;48.392;9.998;2022-08-03T07:50:36;2.47;;;1.90;;
9156;SDS011;4613;48.392;9.998;2022-08-03T07:53:07;2.17;;;2.07;;
9156;SDS011;4613;48.392;9.998;2022-08-03T07:55:38;2.50;;;1.97;;
9156;SDS011;4613;48.392;9.998;2022-08-03T07:58:09;3.83;;;2.10;;
9156;SDS011;4613;48.392;9.998;2022-08-03T08:00:44;2.33;;;2.13;;
9156;SDS011;4613;48.392;9.998;2022-08-03T08:03:16;1.90;;;1.80;;
9156;SDS011;4613;48.392;9.998;2022-08-03T08:05:47;4.37;;;2.30;;
9156;SDS011;4613;48.392;9.998;2022-08-03T08:08:18;2.73;;;2.10;;
9156;SDS011;4613;48.392;9.998;2022-08-03T08:10:50;2.47;;;1.90;;
9156;SDS011;4613;48.392;9.998;2022-08-03T08:13:21;3.97;;;2.13;;
9156;SDS011;4613;48.392;9.998;2022-08-03T08:15:52;3.37;;;2.03;;
9156;SDS011;4613;48.392;9.998;2022-08-03T08:18:22;2.57;;;1.77;;
9156;SDS011;4613;48.392;9.998;2022-08-03T08:20:54;4.60;;;1.80;;
9156;SDS011;4613;48.392;9.998;2022-08-03T08:23:25;1.90;;;1.70;;
9156;SDS011;4613;48.392;9.998;2022-08-03T08:25:56;2.47;;;1.60;;
9156;SDS011;4613;48.392;9.998;2022-08-03T08:28:27;3.27;;;1.50;;
9156;SDS011;4613;48.392;9.998;2022-08-03T08:30:57;2.13;;;1.53;;
9156;SDS011;4613;48.392;9.998;2022-08-03T08:33:29;2.77;;;1.63;;
9156;SDS011;4613;48.392;9.998;2022-08-03T08:36:00;1.60;;;1.50;;
9156;SDS011;4613;48.392;9.998;2022-08-03T08:38:31;2.70;;;1.60;;
9156;SDS011;4613;48.392;9.998;2022-08-03T08:41:04;1.70;;;1.60;;
9156;SDS011;4613;48.392;9.998;2022-08-03T08:43:36;3.77;;;1.90;;
9156;SDS011;4613;48.392;9.998;2022-08-03T08:46:10;3.73;;;1.60;;
9156;SDS011;4613;48.392;9.998;2022-08-03T08:48:42;1.90;;;1.70;;
9156;SDS011;4613;48.392;9.998;2022-08-03T08:51:15;1.87;;;1.77;;
9156;SDS011;4613;48.392;9.998;2022-08-03T08:53:50;2.10;;;1.90;;
9156;SDS011;4613;48.392;9.998;2022-08-03T08:56:24;2.20;;;1.60;;
9156;SDS011;4613;48.392;9.998;2022-08-03T08:58:58;3.27;;;1.60;;
9156;SDS011;4613;48.392;9.998;2022-08-03T09:01:30;3.77;;;1.60;;
9156;SDS011;4613;48.392;9.998;2022-08-03T09:04:03;1.53;;;1.43;;
9156;SDS011;4613;48.392;9.998;2022-08-03T09:06:36;1.83;;;1.50;;
9156;SDS011;4613;48.392;9.998;2022-08-03T09:09:08;1.60;;;1.50;;
9156;SDS011;4613;48.392;9.998;2022-08-03T09:11:42;2.47;;;1.63;;
9156;SDS011;4613;48.392;9.998;2022-08-03T09:14:14;2.50;;;1.80;;
9156;SDS011;4613;48.392;9.998;2022-08-03T09:16:55;1.97;;;1.63;;
9156;SDS011;4613;48.392;9.998;2022-08-03T09:19:32;1.60;;;1.50;;
9156;SDS011;4613;48.392;9.998;2022-08-03T09:22:07;1.60;;;1.50;;
9156;SDS011;4613;48.392;9.998;2022-08-03T09:24:54;2.23;;;1.77;;
9156;SDS011;4613;48.392;9.998;2022-08-03T09:27:30;3.27;;;1.70;;
9156;SDS011;4613;48.392;9.998;2022-08-03T09:30:16;1.63;;;1.63;;
9156;SDS011;4613;48.392;9.998;2022-08-03T09:32:47;1.70;;;1.60;;
9156;SDS011;4613;48.392;9.998;2022-08-03T09:35:27;2.00;;;1.90;;
9156;SDS011;4613;48.392;9.998;2022-08-03T09:38:12;4.60;;;1.60;;
9156;SDS011;4613;48.392;9.998;2022-08-03T09:40:44;3.50;;;2.63;;
9156;SDS011;4613;48.392;9.998;2022-08-03T09:43:16;2.33;;;1.83;;
9156;SDS011;4613;48.392;9.998;2022-08-03T09:45:47;2.13;;;1.60;;
9156;SDS011;4613;48.392;9.998;2022-08-03T09:50:55;1.60;;;1.50;;
9156;SDS011;4613;48.392;9.998;2022-08-03T09:53:40;1.33;;;1.33;;
9156;SDS011;4613;48.392;9.998;2022-08-03T09:56:13;1.67;;;1.57;;
9156;SDS011;4613;48.392;9.998;2022-08-03T09:58:45;2.00;;;1.90;;
9156;SDS011;4613;48.392;9.998;2022-08-03T10:01:17;1.60;;;1.50;;
9156;SDS011;4613;48.392;9.998;2022-08-03T10:03:49;1.60;;;1.50;;
9156;SDS011;4613;48.392;9.998;2022-08-03T10:06:28;3.13;;;1.57;;
9156;SDS011;4613;48.392;9.998;2022-08-03T10:11:39;2.17;;;1.30;;
9156;SDS011;4613;48.392;9.998;2022-08-03T10:14:18;1.30;;;1.30;;
9156;SDS011;4613;48.392;9.998;2022-08-03T10:16:49;1.50;;;1.40;;
9156;SDS011;4613;48.392;9.998;2022-08-03T10:19:20;1.50;;;1.40;;
9156;SDS011;4613;48.392;9.998;2022-08-03T10:21:52;1.80;;;1.30;;
9156;SDS011;4613;48.392;9.998;2022-08-03T10:24:27;1.40;;;1.30;;
9156;SDS011;4613;48.392;9.998;2022-08-03T10:27:03;1.70;;;1.40;;
9156;SDS011;4613;48.392;9.998;2022-08-03T10:29:37;1.40;;;1.40;;
9156;SDS011;4613;48.392;9.998;2022-08-03T10:32:20;1.50;;;1.20;;
9156;SDS011;4613;48.392;9.998;2022-08-03T10:34:59;1.43;;;1.27;;
9156;SDS011;4613;48.392;9.998;2022-08-03T10:37:39;1.10;;;1.10;;
9156;SDS011;4613;48.392;9.998;2022-08-03T10:40:15;1.20;;;1.20;;
9156;SDS011;4613;48.392;9.998;2022-08-03T10:42:49;2.00;;;1.20;;
9156;SDS011;4613;48.392;9.998;2022-08-03T10:45:24;1.20;;;1.20;;
9156;SDS011;4613;48.392;9.998;2022-08-03T10:47:56;1.13;;;1.13;;
9156;SDS011;4613;48.392;9.998;2022-08-03T10:50:29;2.50;;;1.20;;
9156;SDS011;4613;48.392;9.998;2022-08-03T10:53:01;1.40;;;1.30;;
9156;SDS011;4613;48.392;9.998;2022-08-03T10:55:41;1.03;;;1.03;;
9156;SDS011;4613;48.392;9.998;2022-08-03T11:04:22;1.10;;;1.10;;
9156;SDS011;4613;48.392;9.998;2022-08-03T11:07:16;1.20;;;1.20;;
9156;SDS011;4613;48.392;9.998;2022-08-03T11:09:53;1.90;;;1.10;;
9156;SDS011;4613;48.392;9.998;2022-08-03T11:12:29;1.43;;;1.27;;
9156;SDS011;4613;48.392;9.998;2022-08-03T11:15:03;1.27;;;1.17;;
9156;SDS011;4613;48.392;9.998;2022-08-03T11:17:36;1.23;;;1.20;;
9156;SDS011;4613;48.392;9.998;2022-08-03T11:20:07;1.10;;;1.07;;
9156;SDS011;4613;48.392;9.998;2022-08-03T11:22:49;1.20;;;1.20;;
9156;SDS011;4613;48.392;9.998;2022-08-03T11:25:23;1.20;;;1.10;;
9156;SDS011;4613;48.392;9.998;2022-08-03T11:34:06;1.27;;;1.20;;
9156;SDS011;4613;48.392;9.998;2022-08-03T11:39:51;1.30;;;1.20;;
9156;SDS011;4613;48.392;9.998;2022-08-03T11:44:56;1.20;;;1.20;;
9156;SDS011;4613;48.392;9.998;2022-08-03T11:47:28;1.20;;;1.20;;
9156;SDS011;4613;48.392;9.998;2022-08-03T11:49:59;1.20;;;1.20;;
9156;SDS011;4613;48.392;9.998;2022-08-03T11:52:35;1.30;;;1.30;;
9156;SDS011;4613;48.392;9.998;2022-08-03T11:55:09;1.30;;;1.30;;
9156;SDS011;4613;48.392;9.998;2022-08-03T11:57:41;1.20;;;1.20;;
9156;SDS011;4613;48.392;9.998;2022-08-03T12:00:20;1.17;;;1.17;;
9156;SDS011;4613;48.392;9.998;2022-08-03T12:02:56;1.30;;;1.20;;
9156;SDS011;4613;48.392;9.998;2022-08-03T12:05:33;2.13;;;1.20;;
9156;SDS011;4613;48.392;9.998;2022-08-03T12:08:05;1.27;;;1.27;;
9156;SDS011;4613;48.392;9.998;2022-08-03T12:10:37;1.23;;;1.17;;
9156;SDS011;4613;48.392;9.998;2022-08-03T12:13:09;1.20;;;1.20;;
9156;SDS011;4613;48.392;9.998;2022-08-03T12:15:40;2.70;;;1.30;;
9156;SDS011;4613;48.392;9.998;2022-08-03T12:18:15;1.20;;;1.20;;
9156;SDS011;4613;48.392;9.998;2022-08-03T12:20:48;1.27;;;1.10;;
9156;SDS011;4613;48.392;9.998;2022-08-03T12:23:20;2.83;;;1.23;;
9156;SDS011;4613;48.392;9.998;2022-08-03T12:25:51;2.23;;;1.20;;
9156;SDS011;4613;48.392;9.998;2022-08-03T12:28:22;1.27;;;1.27;;
9156;SDS011;4613;48.392;9.998;2022-08-03T12:30:53;1.30;;;1.30;;
9156;SDS011;4613;48.392;9.998;2022-08-03T12:33:24;1.67;;;1.20;;
9156;SDS011;4613;48.392;9.998;2022-08-03T12:38:38;1.10;;;1.00;;
9156;SDS011;4613;48.392;9.998;2022-08-03T12:41:10;1.20;;;1.20;;
9156;SDS011;4613;48.392;9.998;2022-08-03T12:43:46;1.20;;;1.20;;
9156;SDS011;4613;48.392;9.998;2022-08-03T12:46:18;1.67;;;1.10;;
9156;SDS011;4613;48.392;9.998;2022-08-03T12:48:59;1.20;;;1.20;;
9156;SDS011;4613;48.392;9.998;2022-08-03T12:51:37;1.40;;;1.30;;
9156;SDS011;4613;48.392;9.998;2022-08-03T12:54:18;1.40;;;1.30;;
9156;SDS011;4613;48.392;9.998;2022-08-03T12:57:03;1.10;;;1.10;;
9156;SDS011;4613;48.392;9.998;2022-08-03T12:59:37;1.30;;;1.20;;
9156;SDS011;4613;48.392;9.998;2022-08-03T13:02:18;1.10;;;1.10;;
9156;SDS011;4613;48.392;9.998;2022-08-03T13:04:52;1.30;;;1.27;;
9156;SDS011;4613;48.392;9.998;2022-08-03T13:07:23;2.10;;;1.50;;
9156;SDS011;4613;48.392;9.998;2022-08-03T13:09:54;2.77;;;1.43;;
9156;SDS011;4613;48.392;9.998;2022-08-03T13:12:26;2.30;;;1.30;;
9156;SDS011;4613;48.392;9.998;2022-08-03T13:14:59;1.70;;;1.20;;
9156;SDS011;4613;48.392;9.998;2022-08-03T13:17:30;1.63;;;1.20;;
9156;SDS011;4613;48.392;9.998;2022-08-03T13:20:01;1.20;;;1.20;;
9156;SDS011;4613;48.392;9.998;2022-08-03T13:22:32;1.20;;;1.20;;
9156;SDS011;4613;48.392;9.998;2022-08-03T13:25:03;1.40;;;1.30;;
9156;SDS011;4613;48.392;9.998;2022-08-03T13:27:35;1.40;;;1.30;;
9156;SDS011;4613;48.392;9.998;2022-08-03T13:30:06;1.30;;;1.30;;
9156;SDS011;4613;48.392;9.998;2022-08-03T13:32:38;1.07;;;1.07;;
9156;SDS011;4613;48.392;9.998;2022-08-03T13:35:09;1.40;;;1.30;;
9156;SDS011;4613;48.392;9.998;2022-08-03T13:37:40;1.40;;;1.30;;
9156;SDS011;4613;48.392;9.998;2022-08-03T13:40:12;1.37;;;1.27;;
9156;SDS011;4613;48.392;9.998;2022-08-03T13:42:42;1.47;;;1.20;;
9156;SDS011;4613;48.392;9.998;2022-08-03T13:45:13;1.60;;;1.50;;
9156;SDS011;4613;48.392;9.998;2022-08-03T13:47:44;1.33;;;1.33;;
9156;SDS011;4613;48.392;9.998;2022-08-03T13:50:15;1.60;;;1.30;;
9156;SDS011;4613;48.392;9.998;2022-08-03T13:52:46;1.10;;;1.10;;
9156;SDS011;4613;48.392;9.998;2022-08-03T13:55:17;1.50;;;1.40;;
9156;SDS011;4613;48.392;9.998;2022-08-03T13:57:48;1.70;;;1.60;;
9156;SDS011;4613;48.392;9.998;2022-08-03T14:00:19;1.50;;;1.40;;
9156;SDS011;4613;48.392;9.998;2022-08-03T14:02:56;2.10;;;1.30;;
9156;SDS011;4613;48.392;9.998;2022-08-03T14:05:28;2.07;;;1.20;;
9156;SDS011;4613;48.392;9.998;2022-08-03T14:08:01;1.30;;;1.20;;
9156;SDS011;4613;48.392;9.998;2022-08-03T14:10:34;1.43;;;1.30;;
9156;SDS011;4613;48.392;9.998;2022-08-03T14:13:06;2.90;;;2.60;;
9156;SDS011;4613;48.392;9.998;2022-08-03T14:15:38;1.50;;;1.40;;
9156;SDS011;4613;48.392;9.998;2022-08-03T14:18:09;1.10;;;1.10;;
9156;SDS011;4613;48.392;9.998;2022-08-03T14:20:40;1.40;;;1.30;;
9156;SDS011;4613;48.392;9.998;2022-08-03T14:23:11;2.40;;;1.70;;
9156;SDS011;4613;48.392;9.998;2022-08-03T14:25:42;1.30;;;1.30;;
9156;SDS011;4613;48.392;9.998;2022-08-03T14:28:13;1.50;;;1.40;;
9156;SDS011;4613;48.392;9.998;2022-08-03T14:30:44;2.03;;;1.20;;
9156;SDS011;4613;48.392;9.998;2022-08-03T14:33:15;3.20;;;1.50;;
9156;SDS011;4613;48.392;9.998;2022-08-03T14:35:46;1.70;;;1.30;;
9156;SDS011;4613;48.392;9.998;2022-08-03T14:38:18;1.90;;;1.37;;
9156;SDS011;4613;48.392;9.998;2022-08-03T14:40:49;2.40;;;1.20;;
9156;SDS011;4613;48.392;9.998;2022-08-03T14:43:21;1.40;;;1.30;;
9156;SDS011;4613;48.392;9.998;2022-08-03T14:45:52;1.20;;;1.20;;
9156;SDS011;4613;48.392;9.998;2022-08-03T14:48:23;1.20;;;1.20;;
9156;SDS011;4613;48.392;9.998;2022-08-03T14:50:54;1.70;;;1.20;;
9156;SDS011;4613;48.392;9.998;2022-08-03T14:53:25;2.10;;;1.20;;
9156;SDS011;4613;48.392;9.998;2022-08-03T14:55:58;1.50;;;1.40;;
9156;SDS011;4613;48.392;9.998;2022-08-03T14:58:29;1.23;;;1.23;;
9156;SDS011;4613;48.392;9.998;2022-08-03T15:00:59;1.50;;;1.40;;
9156;SDS011;4613;48.392;9.998;2022-08-03T15:03:30;2.00;;;1.80;;
9156;SDS011;4613;48.392;9.998;2022-08-03T15:06:01;1.73;;;1.50;;
9156;SDS011;4613;48.392;9.998;2022-08-03T15:08:32;1.20;;;1.20;;
9156;SDS011;4613;48.392;9.998;2022-08-03T15:11:03;2.37;;;1.47;;
9156;SDS011;4613;48.392;9.998;2022-08-03T15:13:34;1.40;;;1.30;;
9156;SDS011;4613;48.392;9.998;2022-08-03T15:16:05;1.33;;;1.23;;
9156;SDS011;4613;48.392;9.998;2022-08-03T15:18:37;1.20;;;1.20;;
9156;SDS011;4613;48.392;9.998;2022-08-03T15:21:08;1.20;;;1.20;;
9156;SDS011;4613;48.392;9.998;2022-08-03T15:23:39;1.37;;;1.30;;
9156;SDS011;4613;48.392;9.998;2022-08-03T15:26:10;1.80;;;1.20;;
9156;SDS011;4613;48.392;9.998;2022-08-03T15:28:41;1.10;;;1.10;;
9156;SDS011;4613;48.392;9.998;2022-08-03T15:31:12;1.23;;;1.20;;
9156;SDS011;4613;48.392;9.998;2022-08-03T15:33:43;1.27;;;1.17;;
9156;SDS011;4613;48.392;9.998;2022-08-03T15:36:13;1.20;;;1.10;;
9156;SDS011;4613;48.392;9.998;2022-08-03T15:38:44;1.80;;;1.10;;
9156;SDS011;4613;48.392;9.998;2022-08-03T15:41:16;1.77;;;1.67;;
9156;SDS011;4613;48.392;9.998;2022-08-03T15:43:47;1.30;;;1.30;;
9156;SDS011;4613;48.392;9.998;2022-08-03T15:46:18;2.03;;;1.30;;
9156;SDS011;4613;48.392;9.998;2022-08-03T15:48:49;2.30;;;1.27;;
9156;SDS011;4613;48.392;9.998;2022-08-03T15:51:20;1.40;;;1.30;;
9156;SDS011;4613;48.392;9.998;2022-08-03T15:53:53;1.57;;;1.33;;
9156;SDS011;4613;48.392;9.998;2022-08-03T15:56:26;2.03;;;1.40;;
9156;SDS011;4613;48.392;9.998;2022-08-03T15:58:57;2.53;;;1.60;;
9156;SDS011;4613;48.392;9.998;2022-08-03T16:01:28;1.37;;;1.27;;
9156;SDS011;4613;48.392;9.998;2022-08-03T16:03:59;1.40;;;1.40;;
9156;SDS011;4613;48.392;9.998;2022-08-03T16:06:30;1.70;;;1.60;;
9156;SDS011;4613;48.392;9.998;2022-08-03T16:09:02;1.20;;;1.20;;
9156;SDS011;4613;48.392;9.998;2022-08-03T16:11:33;1.37;;;1.27;;
9156;SDS011;4613;48.392;9.998;2022-08-03T16:14:04;1.20;;;1.17;;
9156;SDS011;4613;48.392;9.998;2022-08-03T16:16:35;2.80;;;1.50;;
9156;SDS011;4613;48.392;9.998;2022-08-03T16:19:09;2.07;;;1.40;;
9156;SDS011;4613;48.392;9.998;2022-08-03T16:21:40;1.77;;;1.20;;
9156;SDS011;4613;48.392;9.998;2022-08-03T16:24:11;1.33;;;1.33;;
9156;SDS011;4613;48.392;9.998;2022-08-03T16:26:42;1.60;;;1.50;;
9156;SDS011;4613;48.392;9.998;2022-08-03T16:29:13;1.20;;;1.20;;